Lucerne, CA

7:06 AM PDT on September 20, 2014 (GMT -0700)
Yuba County | Change Station
CLOSE
Current Station
Airport
Location: Marysville,
Elevation: 59 ft
Nearby Weather Stations

Elev 59 ft 39.10 °N, 121.57 °W | Updated 13 minutes ago

Overcast
Overcast
60 °F
Feels Like 60 °F
N
0
Wind Variable Wind from North

Today
High -- | Low -- °F
--% Chance of Precip.
Yesterday
High -- | Low -- °F
Precip. -- in
6:57 AM 7:11 PM
Waning Crescent, 12% visible
Pressure 29.88 in
Visibility 10.0 miles
Clouds Clear
Dew Point 55 °F
Humidity 83%
Rainfall 0.00 in
Snow Depth 0 in , 0 in , 0 in
UV 0 out of 12
Pollen 5.60 out of 12
Air Quality Not available.
Flu Activity Not available.
METAR KMYV 201353Z AUTO 00000KT 10SM CLR 16/13 A2987 RMK AO2 SLP117 T01560128

More Conditions Fewer Conditions

Pressure 29.88 in
Visibility 10.0 miles
Clouds Clear
Dew Point 55 °F
Humidity 83%
Rainfall 0.00 in
Snow Depth 0 in , 0 in , 0 in
UV 0 out of 12
Pollen 5.60 out of 12
Air Quality Not available.
Flu Activity Not available.
METAR KMYV 201353Z AUTO 00000KT 10SM CLR 16/13 A2987 RMK AO2 SLP117 T01560128

More Conditions Fewer Conditions

10-Day Weather Forecast

Almanac

Astronomy

Sep. 20, 2014 Rise Set
Actual Time 6:57 AM PDT 7:11 PM PDT
Civil Twilight 6:30 AM PDT 7:37 PM PDT
Nautical Twilight 5:59 AM PDT 8:09 PM PDT
Astronomical Twilight 5:27 AM PDT 8:40 PM PDT
Moon 3:42 AM PDT 5:16 PM PDT
Length of Visible Light 13h 07m
Length of Day
12h 14m
Tomorrow will be 2m 32s shorter.
Waning Crescent, 12% of the Moon is Illuminated
Today
Waning Crescent
Sep 24
New
Oct 1
First Quarter
Oct 8
Full
Oct 15
Last Quarter

Today's Extremes

State Highs State Lows

Community

WunderPhotos

Upload Photos

1,754,865 photos uploaded!

Nearby

Snow Depth

Station Depth Elevation
Monitor Pass 0 in 8350 ft
Hagan's Meadow 0 in 8000 ft
Fallen Leaf 0 in 6300 ft
Tahoe City Cross 0 in 6750 ft
Spratt Creek 1 in 6200 ft

Earthquake Activity

City Distance Mag. Time & Date
Livermore, California 111 miles 2.6 3:37 AM PDT
2014-09-19
The Geysers, California 22 miles 2.5 11:29 PM PDT
2014-09-17
Minimum magnitude displayed is 2.5.

Coastal Water Temperatures

Place Temperature
No Stations Reporting

Nearby Weather Stations